createdAt,value
2022-09-10T00:00:44.000Z,13.5
2022-09-10T00:01:56.000Z,12.5
2022-09-10T00:03:08.000Z,13.2
2022-09-10T00:04:20.000Z,13.5
2022-09-10T00:05:33.000Z,13.2
2022-09-10T00:06:45.000Z,12.8
2022-09-10T00:07:57.000Z,11.2
2022-09-10T00:09:09.000Z,13.5
2022-09-10T00:10:21.000Z,11.2
2022-09-10T00:11:34.000Z,15.4
2022-09-10T00:12:46.000Z,13.2
2022-09-10T00:13:58.000Z,12.8
2022-09-10T00:15:10.000Z,15.1
2022-09-10T00:16:21.000Z,13.2
2022-09-10T00:17:33.000Z,13.5
2022-09-10T00:18:46.000Z,13.2
2022-09-10T00:19:58.000Z,10.9
2022-09-10T00:21:10.000Z,13.2
2022-09-10T00:22:22.000Z,15.1
2022-09-10T00:23:34.000Z,11.2
2022-09-10T00:24:47.000Z,13.5
2022-09-10T00:25:59.000Z,11.9
2022-09-10T00:27:11.000Z,13.2
2022-09-10T00:28:23.000Z,11.9
2022-09-10T00:29:35.000Z,11.2
2022-09-10T00:30:48.000Z,13.5
2022-09-10T00:31:59.000Z,12.2
2022-09-10T00:33:11.000Z,13.2
2022-09-10T00:34:23.000Z,14.1
2022-09-10T00:35:35.000Z,15.7
2022-09-10T00:36:47.000Z,13.2
2022-09-10T00:38:00.000Z,11.2
2022-09-10T00:39:12.000Z,13.2
2022-09-10T00:40:24.000Z,12.8
2022-09-10T00:41:36.000Z,13.5
2022-09-10T00:42:48.000Z,13.5
2022-09-10T00:44:01.000Z,14.1
2022-09-10T00:45:13.000Z,13.5
2022-09-10T00:46:25.000Z,11.6
2022-09-10T00:47:36.000Z,10.9
2022-09-10T00:48:48.000Z,13.5
2022-09-10T00:50:01.000Z,13.8
2022-09-10T00:51:13.000Z,15.7
2022-09-10T00:52:25.000Z,11.9
2022-09-10T00:53:37.000Z,13.5
2022-09-10T00:54:49.000Z,13.5
2022-09-10T00:56:01.000Z,12.8
2022-09-10T00:57:14.000Z,10.9
2022-09-10T00:58:26.000Z,14.1
2022-09-10T00:59:38.000Z,13.8
2022-09-10T01:00:50.000Z,13.8
2022-09-10T01:02:02.000Z,15.7
2022-09-10T01:03:14.000Z,13.5
2022-09-10T01:04:26.000Z,13.2
2022-09-10T01:05:38.000Z,13.8
2022-09-10T01:06:50.000Z,12.8
2022-09-10T01:08:02.000Z,15.4
2022-09-10T01:09:14.000Z,15.7
2022-09-10T01:10:27.000Z,13.8
2022-09-10T01:11:39.000Z,13.8
2022-09-10T01:12:51.000Z,13.8
2022-09-10T01:14:03.000Z,13.2
2022-09-10T01:15:15.000Z,13.2
2022-09-10T01:16:28.000Z,13.8
2022-09-10T01:17:40.000Z,13.8
2022-09-10T01:18:51.000Z,13.8
2022-09-10T01:20:03.000Z,15.4
2022-09-10T01:21:15.000Z,12.2
2022-09-10T01:22:28.000Z,12.5
2022-09-10T01:23:40.000Z,13.2
2022-09-10T01:24:52.000Z,11.9
2022-09-10T01:26:04.000Z,13.5
2022-09-10T01:27:16.000Z,13.8
2022-09-10T01:28:28.000Z,12.2
2022-09-10T01:29:41.000Z,13.2
2022-09-10T01:30:53.000Z,11.9
2022-09-10T01:32:05.000Z,13.5
2022-09-10T01:33:17.000Z,11.2
2022-09-10T01:34:28.000Z,13.2
2022-09-10T01:35:41.000Z,13.5
2022-09-10T01:36:53.000Z,13.5
2022-09-10T01:38:05.000Z,13.8
2022-09-10T01:39:17.000Z,13.2
2022-09-10T01:40:29.000Z,13.5
2022-09-10T01:41:41.000Z,13.5
2022-09-10T01:42:54.000Z,13.5
2022-09-10T01:44:06.000Z,10.6
2022-09-10T01:45:18.000Z,13.2
2022-09-10T01:46:30.000Z,12.8
2022-09-10T01:47:42.000Z,13.5
2022-09-10T01:48:55.000Z,13.5
2022-09-10T01:50:06.000Z,11.6
2022-09-10T01:51:18.000Z,13.2
2022-09-10T01:52:30.000Z,10.9
2022-09-10T01:53:42.000Z,12.2
2022-09-10T01:54:55.000Z,13.8
2022-09-10T01:56:07.000Z,13.5
2022-09-10T01:57:19.000Z,13.2
2022-09-10T01:58:31.000Z,11.6
2022-09-10T01:59:43.000Z,13.5
2022-09-10T02:00:55.000Z,13.5
2022-09-10T02:02:08.000Z,13.2
2022-09-10T02:03:20.000Z,13.5
2022-09-10T02:04:32.000Z,13.5
2022-09-10T02:05:43.000Z,13.2
2022-09-10T02:06:55.000Z,11.6
2022-09-10T02:08:08.000Z,16.7
2022-09-10T02:09:20.000Z,15.1
2022-09-10T02:10:32.000Z,15.1
2022-09-10T02:11:44.000Z,13.2
2022-09-10T02:12:56.000Z,15.7
2022-09-10T02:14:09.000Z,15.7
2022-09-10T02:15:21.000Z,13.5
2022-09-10T02:16:33.000Z,13.5
2022-09-10T02:17:45.000Z,13.5
2022-09-10T02:18:57.000Z,11.2
2022-09-10T02:20:09.000Z,13.5
2022-09-10T02:21:21.000Z,14.8
2022-09-10T02:22:33.000Z,12.2
2022-09-10T02:23:45.000Z,13.5
2022-09-10T02:24:57.000Z,12.8
2022-09-10T02:26:09.000Z,10.9
2022-09-10T02:27:22.000Z,11.2
2022-09-10T02:28:34.000Z,14.8
2022-09-10T02:29:46.000Z,13.8
2022-09-10T02:30:58.000Z,13.5
2022-09-10T02:32:10.000Z,13.5
2022-09-10T02:33:22.000Z,12.2
2022-09-10T02:34:35.000Z,13.8
2022-09-10T02:35:47.000Z,15.7
2022-09-10T02:36:58.000Z,13.5
2022-09-10T02:38:10.000Z,13.5
2022-09-10T02:39:22.000Z,13.5
2022-09-10T02:40:35.000Z,13.5
2022-09-10T02:41:47.000Z,13.5
2022-09-10T02:42:59.000Z,13.5
2022-09-10T02:44:11.000Z,13.2
2022-09-10T02:45:23.000Z,12.5
2022-09-10T02:46:36.000Z,13.2
2022-09-10T02:47:48.000Z,13.2
2022-09-10T02:49:00.000Z,13.2
2022-09-10T02:50:12.000Z,13.5
2022-09-10T02:51:24.000Z,12.5
2022-09-10T02:52:35.000Z,15.4
2022-09-10T02:53:48.000Z,13.2
2022-09-10T02:55:00.000Z,15.1
2022-09-10T02:56:12.000Z,15.1
2022-09-10T02:57:24.000Z,14.8
2022-09-10T02:58:36.000Z,12.2
2022-09-10T02:59:49.000Z,15.1
2022-09-10T03:01:01.000Z,13.2
2022-09-10T03:02:13.000Z,13.5
2022-09-10T03:03:25.000Z,15.4
2022-09-10T03:04:37.000Z,10.3
2022-09-10T03:05:50.000Z,13.5
2022-09-10T03:07:02.000Z,13.5
2022-09-10T03:08:13.000Z,13.5
2022-09-10T03:09:25.000Z,11.2
2022-09-10T03:10:37.000Z,11.6
2022-09-10T03:11:49.000Z,15.1
2022-09-10T03:13:02.000Z,13.5
2022-09-10T03:14:14.000Z,13.5
2022-09-10T03:15:26.000Z,11.9
2022-09-10T03:16:38.000Z,13.5
2022-09-10T03:17:50.000Z,13.2
2022-09-10T03:19:03.000Z,13.5
2022-09-10T03:20:15.000Z,13.5
2022-09-10T03:21:27.000Z,13.5
2022-09-10T03:22:39.000Z,13.5
2022-09-10T03:23:50.000Z,13.2
2022-09-10T03:25:02.000Z,13.5
2022-09-10T03:26:15.000Z,13.8
2022-09-10T03:27:27.000Z,17
2022-09-10T03:28:39.000Z,13.5
2022-09-10T03:29:51.000Z,14.5
2022-09-10T03:31:03.000Z,12.5
2022-09-10T03:32:16.000Z,13.5
2022-09-10T03:33:28.000Z,12.2
2022-09-10T03:34:40.000Z,13.8
2022-09-10T03:35:52.000Z,13.5
2022-09-10T03:37:04.000Z,13.5
2022-09-10T03:38:17.000Z,16.7
2022-09-10T03:39:28.000Z,13.8
2022-09-10T03:40:40.000Z,13.8
2022-09-10T03:41:52.000Z,13.2
2022-09-10T03:43:04.000Z,13.5
2022-09-10T03:44:16.000Z,13.2
2022-09-10T03:45:29.000Z,14.8
2022-09-10T03:46:40.000Z,15.1
2022-09-10T03:47:52.000Z,14.5
2022-09-10T03:49:04.000Z,15.7
2022-09-10T03:50:16.000Z,13.8
2022-09-10T03:51:29.000Z,14.8
2022-09-10T03:52:41.000Z,13.8
2022-09-10T03:53:53.000Z,13.8
2022-09-10T03:55:05.000Z,13.5
2022-09-10T03:56:17.000Z,15.4
2022-09-10T03:57:30.000Z,13.2
2022-09-10T03:58:42.000Z,13.5
2022-09-10T03:59:54.000Z,15.4
2022-09-10T04:01:06.000Z,13.5
2022-09-10T04:02:17.000Z,13.8
2022-09-10T04:03:29.000Z,13.2
2022-09-10T04:04:42.000Z,13.8
2022-09-10T04:05:54.000Z,16.1
2022-09-10T04:07:06.000Z,13.5
2022-09-10T04:08:18.000Z,13.5
2022-09-10T04:09:30.000Z,12.5
2022-09-10T04:10:43.000Z,14.8
2022-09-10T04:11:55.000Z,13.8
2022-09-10T04:13:07.000Z,13.5
2022-09-10T04:14:19.000Z,13.2
2022-09-10T04:15:31.000Z,13.5
2022-09-10T04:16:43.000Z,13.5
2022-09-10T04:17:55.000Z,13.5
2022-09-10T04:19:07.000Z,14.8
2022-09-10T04:20:19.000Z,11.9
2022-09-10T04:21:31.000Z,13.5
2022-09-10T04:22:43.000Z,13.5
2022-09-10T04:23:56.000Z,14.8
2022-09-10T04:25:08.000Z,13.8
2022-09-10T04:26:20.000Z,13.5
2022-09-10T04:27:32.000Z,13.5
2022-09-10T04:28:44.000Z,14.1
2022-09-10T04:29:57.000Z,14.1
2022-09-10T04:31:09.000Z,13.5
2022-09-10T04:32:21.000Z,13.5
2022-09-10T04:33:32.000Z,13.5
2022-09-10T04:34:44.000Z,11.2
2022-09-10T04:35:56.000Z,13.8
2022-09-10T04:37:09.000Z,13.5
2022-09-10T04:38:21.000Z,13.8
2022-09-10T04:39:33.000Z,13.8
2022-09-10T04:40:45.000Z,13.5
2022-09-10T04:41:57.000Z,13.5
2022-09-10T04:43:10.000Z,14.1
2022-09-10T04:44:22.000Z,13.5
2022-09-10T04:45:34.000Z,13.5
2022-09-10T04:46:46.000Z,13.8
2022-09-10T04:47:58.000Z,9
2022-09-10T04:49:10.000Z,13.5
2022-09-10T04:50:22.000Z,13.8
2022-09-10T04:51:34.000Z,16.1
2022-09-10T04:52:46.000Z,15.7
2022-09-10T04:53:58.000Z,15.7
2022-09-10T04:55:10.000Z,13.5
2022-09-10T04:56:23.000Z,13.5
2022-09-10T04:57:35.000Z,14.1
2022-09-10T04:58:47.000Z,13.5
2022-09-10T04:59:59.000Z,14.5
2022-09-10T05:01:11.000Z,15.7
2022-09-10T05:02:24.000Z,13.5
2022-09-10T05:03:36.000Z,12.5
2022-09-10T05:04:47.000Z,13.8
2022-09-10T05:05:59.000Z,11.6
2022-09-10T05:07:11.000Z,12.2
2022-09-10T05:08:24.000Z,13.5
2022-09-10T05:09:36.000Z,13.5
2022-09-10T05:10:48.000Z,15.4
2022-09-10T05:12:00.000Z,14.5
2022-09-10T05:13:12.000Z,13.5
2022-09-10T05:14:24.000Z,12.2
2022-09-10T05:15:37.000Z,13.2
2022-09-10T05:16:49.000Z,13.8
2022-09-10T05:18:01.000Z,13.5
2022-09-10T05:20:24.000Z,13.8
2022-09-10T05:21:37.000Z,15.7
2022-09-10T05:22:49.000Z,13.8
2022-09-10T05:24:01.000Z,13.8
2022-09-10T05:24:48.262Z,13.5
2022-09-10T05:25:13.000Z,13.5
2022-09-10T05:26:25.000Z,13.5
2022-09-10T05:27:37.000Z,13.8
2022-09-10T05:28:50.000Z,11.9
2022-09-10T05:30:02.000Z,13.8
2022-09-10T05:31:14.000Z,13.8
2022-09-10T05:32:26.000Z,11.6
2022-09-10T05:33:38.000Z,13.8
2022-09-10T05:34:51.000Z,11.9
2022-09-10T05:36:03.000Z,15.4
2022-09-10T05:37:14.000Z,14.8
2022-09-10T05:38:26.000Z,13.5
2022-09-10T05:39:38.000Z,14.5
2022-09-10T05:40:51.000Z,13.8
2022-09-10T05:42:03.000Z,13.8
2022-09-10T05:43:15.000Z,13.8
2022-09-10T05:44:27.000Z,14.1
2022-09-10T05:45:39.000Z,11.9
2022-09-10T05:46:51.000Z,16.7
2022-09-10T05:48:04.000Z,13.8
2022-09-10T05:49:16.000Z,13.8
2022-09-10T05:50:28.000Z,15.1
2022-09-10T05:51:40.000Z,15.7
2022-09-10T05:52:51.000Z,14.1
2022-09-10T05:54:04.000Z,13.5
2022-09-10T05:55:16.000Z,16.4
2022-09-10T05:56:28.000Z,13.5
2022-09-10T05:57:40.000Z,13.8
2022-09-10T05:58:52.000Z,13.8
2022-09-10T06:00:05.000Z,14.1
2022-09-10T06:01:17.000Z,15.7
2022-09-10T06:02:29.000Z,11.9
2022-09-10T06:03:41.000Z,13.8
2022-09-10T06:04:53.000Z,16.1
2022-09-10T06:06:05.000Z,12.5
2022-09-10T06:07:18.000Z,13.8
2022-09-10T06:08:29.000Z,16.4
2022-09-10T06:09:41.000Z,14.1
2022-09-10T06:10:53.000Z,16.4
2022-09-10T06:12:05.000Z,11.9
2022-09-10T06:13:18.000Z,14.1
2022-09-10T06:14:30.000Z,13.8
2022-09-10T06:15:42.000Z,13.8
2022-09-10T06:16:54.000Z,14.1
2022-09-10T06:18:06.000Z,14.1
2022-09-10T06:19:18.000Z,12.2
2022-09-10T06:20:31.000Z,12.5
2022-09-10T06:21:43.000Z,15.4
2022-09-10T06:22:55.000Z,14.1
2022-09-10T06:24:06.000Z,14.1
2022-09-10T06:25:18.000Z,14.1
2022-09-10T06:26:31.000Z,14.5
2022-09-10T06:27:43.000Z,16.1
2022-09-10T06:28:55.000Z,16.1
2022-09-10T06:30:07.000Z,15.1
2022-09-10T06:31:19.000Z,14.1
2022-09-10T06:32:32.000Z,11.9
2022-09-10T06:33:44.000Z,14.1
2022-09-10T06:34:56.000Z,14.5
2022-09-10T06:36:08.000Z,12.2
2022-09-10T06:37:20.000Z,14.5
2022-09-10T06:38:32.000Z,14.8
2022-09-10T06:39:44.000Z,16.7
2022-09-10T06:40:56.000Z,16.4
2022-09-10T06:42:08.000Z,17
2022-09-10T06:43:20.000Z,14.1
2022-09-10T06:44:32.000Z,14.8
2022-09-10T06:46:57.000Z,14.5
2022-09-10T06:48:09.000Z,14.5
2022-09-10T06:49:21.000Z,14.8
2022-09-10T06:50:33.000Z,17.4
2022-09-10T06:51:19.741Z,14.5
2022-09-10T06:51:46.000Z,14.5
2022-09-10T06:52:58.000Z,14.5
2022-09-10T06:54:10.000Z,12.5
2022-09-10T06:55:21.000Z,16.4
2022-09-10T06:56:33.000Z,16.7
2022-09-10T06:57:45.000Z,14.5
2022-09-10T06:58:58.000Z,14.5
2022-09-10T07:00:10.000Z,13.8
2022-09-10T07:01:22.000Z,14.8
2022-09-10T07:02:34.000Z,14.8
2022-09-10T07:03:46.000Z,17
2022-09-10T07:04:59.000Z,13.5
2022-09-10T07:06:11.000Z,14.8
2022-09-10T07:07:23.000Z,16.4
2022-09-10T07:08:35.000Z,15.4
2022-09-10T07:09:47.000Z,15.1
2022-09-10T07:10:58.000Z,16.7
2022-09-10T07:12:11.000Z,18.6
2022-09-10T07:13:23.000Z,14.5
2022-09-10T07:14:35.000Z,15.1
2022-09-10T07:15:47.000Z,16.1
2022-09-10T07:16:59.000Z,15.1
2022-09-10T07:18:12.000Z,15.4
2022-09-10T07:19:24.000Z,14.5
2022-09-10T07:20:36.000Z,14.5
2022-09-10T07:21:48.000Z,16.1
2022-09-10T07:23:00.000Z,17.7
2022-09-10T07:24:12.000Z,15.1
2022-09-10T07:25:25.000Z,15.1
2022-09-10T07:26:36.000Z,15.4
2022-09-10T07:27:48.000Z,15.4
2022-09-10T07:29:00.000Z,15.4
2022-09-10T07:30:12.000Z,15.4
2022-09-10T07:31:25.000Z,15.7
2022-09-10T07:32:37.000Z,17.7
2022-09-10T07:33:49.000Z,15.4
2022-09-10T07:35:01.000Z,15.7
2022-09-10T07:36:13.000Z,14.1
2022-09-10T07:37:26.000Z,15.7
2022-09-10T07:38:38.000Z,15.7
2022-09-10T07:39:50.000Z,15.1
2022-09-10T07:41:02.000Z,13.5
2022-09-10T07:42:13.000Z,15.4
2022-09-10T07:43:25.000Z,16.1
2022-09-10T07:44:38.000Z,17
2022-09-10T07:45:50.000Z,15.7
2022-09-10T07:47:02.000Z,15.7
2022-09-10T07:48:13.000Z,15.7
2022-09-10T07:49:25.000Z,15.4
2022-09-10T07:50:38.000Z,15.7
2022-09-10T07:51:50.000Z,15.7
2022-09-10T07:53:02.000Z,15.7
2022-09-10T07:54:14.000Z,16.1
2022-09-10T07:55:26.000Z,18.6
2022-09-10T07:56:38.000Z,18
2022-09-10T07:57:51.000Z,15.7
2022-09-10T07:59:03.000Z,14.1
2022-09-10T08:00:15.000Z,16.1
2022-09-10T08:01:27.000Z,16.1
2022-09-10T08:02:39.000Z,14.8
2022-09-10T08:03:51.000Z,15.4
2022-09-10T08:05:03.000Z,13.8
2022-09-10T08:06:15.000Z,12.2
2022-09-10T08:07:27.000Z,14.8
2022-09-10T08:08:39.000Z,16.1
2022-09-10T08:09:52.000Z,16.4
2022-09-10T08:11:04.000Z,16.1
2022-09-10T08:12:16.000Z,14.8
2022-09-10T08:13:28.000Z,16.4
2022-09-10T08:14:40.000Z,16.4
2022-09-10T08:15:52.000Z,16.4
2022-09-10T08:17:05.000Z,15.1
2022-09-10T08:18:17.000Z,16.4
2022-09-10T08:19:28.000Z,15.1
2022-09-10T08:20:40.000Z,14.1
2022-09-10T08:21:52.000Z,16.4
2022-09-10T08:23:05.000Z,19
2022-09-10T08:24:17.000Z,14.8
2022-09-10T08:25:29.000Z,16.1
2022-09-10T08:26:41.000Z,15.7
2022-09-10T08:27:53.000Z,16.7
2022-09-10T08:29:05.000Z,18
2022-09-10T08:30:18.000Z,17
2022-09-10T08:31:30.000Z,17.4
2022-09-10T08:32:42.000Z,19
2022-09-10T08:35:05.000Z,19.6
2022-09-10T08:36:18.000Z,17.7
2022-09-10T08:37:30.000Z,17.4
2022-09-10T08:38:42.000Z,17.4
2022-09-10T08:39:54.000Z,17
2022-09-10T08:41:06.000Z,19.3
2022-09-10T08:42:19.000Z,15.7
2022-09-10T08:43:31.000Z,18.6
2022-09-10T08:44:43.000Z,14.8
2022-09-10T08:45:55.000Z,15.1
2022-09-10T08:47:07.000Z,17
2022-09-10T08:48:19.000Z,17
2022-09-10T08:49:32.000Z,18.6
2022-09-10T08:50:43.000Z,17.4
2022-09-10T08:51:55.000Z,17.7
2022-09-10T08:53:07.000Z,17.4
2022-09-10T08:54:19.000Z,21.2
2022-09-10T08:55:32.000Z,18
2022-09-10T08:56:44.000Z,17.7
2022-09-10T08:57:56.000Z,18
2022-09-10T08:59:08.000Z,17.7
2022-09-10T09:00:20.000Z,18
2022-09-10T09:01:32.000Z,16.1
2022-09-10T09:02:45.000Z,16.1
2022-09-10T09:03:57.000Z,18.3
2022-09-10T09:05:09.000Z,17.7
2022-09-10T09:06:20.000Z,18
2022-09-10T09:07:32.000Z,17.4
2022-09-10T09:08:45.000Z,18
2022-09-10T09:09:57.000Z,17.4
2022-09-10T09:11:09.000Z,19.9
2022-09-10T09:12:21.000Z,18
2022-09-10T09:13:33.000Z,16.1
2022-09-10T09:14:45.000Z,19
2022-09-10T09:15:58.000Z,16.7
2022-09-10T09:17:10.000Z,17.4
2022-09-10T09:18:22.000Z,18.3
2022-09-10T09:19:34.000Z,18.6
2022-09-10T09:20:46.000Z,18
2022-09-10T09:21:58.000Z,18.6
2022-09-10T09:23:10.000Z,16.7
2022-09-10T09:24:22.000Z,19
2022-09-10T09:25:34.000Z,22.2
2022-09-10T09:26:46.000Z,20.6
2022-09-10T09:27:59.000Z,18.3
2022-09-10T09:29:11.000Z,18.6
2022-09-10T09:30:23.000Z,18.3
2022-09-10T09:31:35.000Z,19.6
2022-09-10T09:32:47.000Z,18.6
2022-09-10T09:33:59.000Z,17.4
2022-09-10T09:36:24.000Z,18.6
2022-09-10T09:37:35.000Z,18.6
2022-09-10T09:38:47.000Z,17.4
2022-09-10T09:39:59.000Z,18.6
2022-09-10T09:40:46.933Z,17.7
2022-09-10T09:41:12.000Z,18.3
2022-09-10T09:42:24.000Z,18.3
2022-09-10T09:43:36.000Z,18.6
2022-09-10T09:44:48.000Z,16.1
2022-09-10T09:46:00.000Z,18.3
2022-09-10T09:47:12.000Z,17.7
2022-09-10T09:48:25.000Z,18.6
2022-09-10T09:49:37.000Z,18.6
2022-09-10T09:50:49.000Z,19
2022-09-10T09:52:01.000Z,15.7
2022-09-10T09:53:12.000Z,19.9
2022-09-10T09:54:25.000Z,19.3
2022-09-10T09:55:37.000Z,19
2022-09-10T09:56:49.000Z,19
2022-09-10T09:58:01.000Z,19
2022-09-10T09:59:13.000Z,23.5
2022-09-10T10:00:26.000Z,19.9
2022-09-10T10:01:38.000Z,19.3
2022-09-10T10:02:50.000Z,19
2022-09-10T10:04:02.000Z,19.3
2022-09-10T10:05:14.000Z,19.3
2022-09-10T10:06:26.000Z,19
2022-09-10T10:07:39.000Z,21.5
2022-09-10T10:08:50.000Z,19
2022-09-10T10:10:02.000Z,19.3
2022-09-10T10:11:14.000Z,19.3
2022-09-10T10:12:26.000Z,19
2022-09-10T10:13:39.000Z,19.6
2022-09-10T10:14:51.000Z,19.3
2022-09-10T10:16:03.000Z,19.6
2022-09-10T10:17:15.000Z,19.6
2022-09-10T10:18:27.000Z,21.2
2022-09-10T10:19:39.000Z,19.9
2022-09-10T10:20:52.000Z,20.3
2022-09-10T10:22:04.000Z,19.6
2022-09-10T10:23:16.000Z,19.9
2022-09-10T10:24:27.000Z,20.3
2022-09-10T10:25:39.000Z,19.6
2022-09-10T10:26:52.000Z,20.9
2022-09-10T10:28:04.000Z,20.6
2022-09-10T10:29:16.000Z,19.3
2022-09-10T10:30:28.000Z,19
2022-09-10T10:31:40.000Z,20.6
2022-09-10T10:32:53.000Z,19.9
2022-09-10T10:34:05.000Z,20.6
2022-09-10T10:35:17.000Z,19.9
2022-09-10T10:36:29.000Z,20.6
2022-09-10T10:37:41.000Z,22.5
2022-09-10T10:38:53.000Z,20.9
2022-09-10T10:40:05.000Z,19.3
2022-09-10T10:41:17.000Z,19.6
2022-09-10T10:42:29.000Z,21.2
2022-09-10T10:43:41.000Z,21.2
2022-09-10T10:44:53.000Z,20.9
2022-09-10T10:46:06.000Z,20.6
2022-09-10T10:47:18.000Z,20.3
2022-09-10T10:48:30.000Z,21.2
2022-09-10T10:49:42.000Z,22.2
2022-09-10T10:50:54.000Z,18.3
2022-09-10T10:52:06.000Z,19.9
2022-09-10T10:53:19.000Z,19.9
2022-09-10T10:54:31.000Z,19.6
2022-09-10T10:55:42.000Z,20.3
2022-09-10T10:56:54.000Z,20.3
2022-09-10T10:58:06.000Z,19.9
2022-09-10T10:59:19.000Z,20.6
2022-09-10T11:00:31.000Z,20.6
2022-09-10T11:01:43.000Z,20.9
2022-09-10T11:02:55.000Z,18.6
2022-09-10T11:04:07.000Z,19.6
2022-09-10T11:05:19.000Z,19.3
2022-09-10T11:06:32.000Z,20.9
2022-09-10T11:07:44.000Z,18.6
2022-09-10T11:08:56.000Z,21.5
2022-09-10T11:10:08.000Z,19.9
2022-09-10T11:11:19.000Z,21.9
2022-09-10T11:12:32.000Z,20.3
2022-09-10T11:13:44.000Z,19.9
2022-09-10T11:14:56.000Z,21.5
2022-09-10T11:16:08.000Z,19.9
2022-09-10T11:17:20.000Z,20.3
2022-09-10T11:18:33.000Z,20.3
2022-09-10T11:19:45.000Z,18.3
2022-09-10T11:20:57.000Z,20.3
2022-09-10T11:22:09.000Z,21.2
2022-09-10T11:23:21.000Z,21.2
2022-09-10T11:24:33.000Z,21.2
2022-09-10T11:25:46.000Z,21.9
2022-09-10T11:26:57.000Z,21.9
2022-09-10T11:28:09.000Z,20.9
2022-09-10T11:29:21.000Z,19
2022-09-10T11:30:33.000Z,21.5
2022-09-10T11:31:46.000Z,21.9
2022-09-10T11:32:58.000Z,24.1
2022-09-10T11:34:10.000Z,20.3
2022-09-10T11:35:22.000Z,23.8
2022-09-10T11:36:34.000Z,19.9
2022-09-10T11:37:46.000Z,21.5
2022-09-10T11:38:59.000Z,23.5
2022-09-10T11:40:11.000Z,21.5
2022-09-10T11:41:23.000Z,20.9
2022-09-10T11:42:34.000Z,22.8
2022-09-10T11:43:46.000Z,21.2
2022-09-10T11:44:59.000Z,20.9
2022-09-10T11:46:11.000Z,20.9
2022-09-10T11:47:23.000Z,19
2022-09-10T11:48:35.000Z,20.6
2022-09-10T11:49:46.000Z,21.2
2022-09-10T11:50:59.000Z,20.3
2022-09-10T11:52:11.000Z,19.9
2022-09-10T11:53:23.000Z,18.3
2022-09-10T11:54:35.000Z,20.6
2022-09-10T11:55:47.000Z,20.3
2022-09-10T11:56:59.000Z,20.3
2022-09-10T11:58:12.000Z,20.3
2022-09-10T11:59:24.000Z,20.3
2022-09-10T12:00:36.000Z,19.9
2022-09-10T12:01:48.000Z,22.5
2022-09-10T12:03:00.000Z,20.9
2022-09-10T12:04:13.000Z,19.9
2022-09-10T12:05:24.000Z,17.7
2022-09-10T12:06:36.000Z,19.6
2022-09-10T12:07:48.000Z,23.8
2022-09-10T12:09:00.000Z,18
2022-09-10T12:10:12.000Z,19.9
2022-09-10T12:11:25.000Z,21.2
2022-09-10T12:12:37.000Z,19.9
2022-09-10T12:13:49.000Z,20.3
2022-09-10T12:15:01.000Z,18
2022-09-10T12:16:13.000Z,19
2022-09-10T12:17:26.000Z,18
2022-09-10T12:18:38.000Z,19.6
2022-09-10T12:21:01.000Z,18.3
2022-09-10T12:22:13.000Z,19
2022-09-10T12:23:26.000Z,20.9
2022-09-10T12:24:38.000Z,17.4
2022-09-10T12:25:25.367Z,20.3
2022-09-10T12:25:50.000Z,19.9
2022-09-10T12:27:02.000Z,21.5
2022-09-10T12:28:14.000Z,19.9
2022-09-10T12:29:26.000Z,19.9
2022-09-10T12:30:39.000Z,18
2022-09-10T12:31:51.000Z,19.3
2022-09-10T12:33:03.000Z,18
2022-09-10T12:34:15.000Z,20.9
2022-09-10T12:35:27.000Z,20.9
2022-09-10T12:36:39.000Z,19.9
2022-09-10T12:37:51.000Z,19
2022-09-10T12:39:03.000Z,17.7
2022-09-10T12:40:15.000Z,18.3
2022-09-10T12:41:27.000Z,20.3
2022-09-10T12:42:39.000Z,20.6
2022-09-10T12:43:52.000Z,21.9
2022-09-10T12:45:04.000Z,21.9
2022-09-10T12:46:16.000Z,19
2022-09-10T12:47:28.000Z,20.3
2022-09-10T12:48:40.000Z,21.2
2022-09-10T12:49:53.000Z,18.6
2022-09-10T12:51:05.000Z,22.2
2022-09-10T12:52:16.000Z,19
2022-09-10T12:53:28.000Z,20.3
2022-09-10T12:54:40.000Z,20.3
2022-09-10T12:55:53.000Z,20.6
2022-09-10T12:57:05.000Z,19.9
2022-09-10T12:58:17.000Z,20.6
2022-09-10T12:59:29.000Z,20.3
2022-09-10T13:00:41.000Z,21.2
2022-09-10T13:01:53.000Z,20.3
2022-09-10T13:03:06.000Z,20.3
2022-09-10T13:04:18.000Z,19.9
2022-09-10T13:05:30.000Z,21.2
2022-09-10T13:06:42.000Z,20.3
2022-09-10T13:07:53.000Z,22.5
2022-09-10T13:09:06.000Z,20.6
2022-09-10T13:10:18.000Z,20.3
2022-09-10T13:11:30.000Z,19.9
2022-09-10T13:12:42.000Z,21.9
2022-09-10T13:13:54.000Z,19.6
2022-09-10T13:15:06.000Z,19.9
2022-09-10T13:16:19.000Z,18
2022-09-10T13:17:31.000Z,18.3
2022-09-10T13:18:43.000Z,20.3
2022-09-10T13:19:55.000Z,18.6
2022-09-10T13:21:07.000Z,19.9
2022-09-10T13:22:20.000Z,21.5
2022-09-10T13:23:31.000Z,20.3
2022-09-10T13:24:43.000Z,18.3
2022-09-10T13:25:55.000Z,20.3
2022-09-10T13:27:07.000Z,21.9
2022-09-10T13:28:20.000Z,19.9
2022-09-10T13:29:32.000Z,19.9
2022-09-10T13:30:44.000Z,19.9
2022-09-10T13:31:56.000Z,18.6
2022-09-10T13:33:08.000Z,19.9
2022-09-10T13:34:20.000Z,20.6
2022-09-10T13:35:33.000Z,20.3
2022-09-10T13:36:45.000Z,20.3
2022-09-10T13:37:57.000Z,21.9
2022-09-10T13:39:08.000Z,18.3
2022-09-10T13:40:20.000Z,19.6
2022-09-10T13:41:33.000Z,19.9
2022-09-10T13:42:45.000Z,19.6
2022-09-10T13:43:57.000Z,19.6
2022-09-10T13:45:09.000Z,18
2022-09-10T13:46:21.000Z,19.6
2022-09-10T13:47:33.000Z,22.5
2022-09-10T13:48:46.000Z,20.3
2022-09-10T13:49:58.000Z,17.7
2022-09-10T13:51:10.000Z,17
2022-09-10T13:52:22.000Z,21.2
2022-09-10T13:53:34.000Z,19.3
2022-09-10T13:54:46.000Z,19.3
2022-09-10T13:57:10.000Z,19.6
2022-09-10T13:58:22.000Z,19.3
2022-09-10T13:59:34.000Z,19.3
2022-09-10T14:00:46.000Z,19.6
2022-09-10T14:01:33.240Z,19.6
2022-09-10T14:01:59.000Z,18.6
2022-09-10T14:03:11.000Z,20.6
2022-09-10T14:04:23.000Z,19.6
2022-09-10T14:05:35.000Z,20.6
2022-09-10T14:06:47.000Z,22.2
2022-09-10T14:08:00.000Z,19.3
2022-09-10T14:09:12.000Z,19.9
2022-09-10T14:10:23.000Z,19
2022-09-10T14:11:35.000Z,19.9
2022-09-10T14:12:47.000Z,19
2022-09-10T14:14:00.000Z,19
2022-09-10T14:15:12.000Z,19.3
2022-09-10T14:16:24.000Z,19.6
2022-09-10T14:17:36.000Z,19.3
2022-09-10T14:18:48.000Z,20.9
2022-09-10T14:20:00.000Z,19
2022-09-10T14:21:13.000Z,19.3
2022-09-10T14:22:25.000Z,17.4
2022-09-10T14:23:37.000Z,19.9
2022-09-10T14:24:49.000Z,19.3
2022-09-10T14:26:00.000Z,17
2022-09-10T14:27:13.000Z,18
2022-09-10T14:28:25.000Z,20.3
2022-09-10T14:29:37.000Z,19
2022-09-10T14:30:49.000Z,17.4
2022-09-10T14:32:01.000Z,19.9
2022-09-10T14:33:13.000Z,19.3
2022-09-10T14:34:26.000Z,19
2022-09-10T14:35:38.000Z,19
2022-09-10T14:36:50.000Z,17.4
2022-09-10T14:38:02.000Z,17
2022-09-10T14:39:14.000Z,18
2022-09-10T14:40:27.000Z,19.3
2022-09-10T14:41:38.000Z,20.6
2022-09-10T14:42:50.000Z,17.7
2022-09-10T14:44:02.000Z,18.3
2022-09-10T14:45:14.000Z,18
2022-09-10T14:46:27.000Z,19.3
2022-09-10T14:47:39.000Z,19
2022-09-10T14:48:51.000Z,18.6
2022-09-10T14:50:03.000Z,17.7
2022-09-10T14:51:15.000Z,18.6
2022-09-10T14:52:27.000Z,18.6
2022-09-10T14:53:40.000Z,19
2022-09-10T14:54:52.000Z,19
2022-09-10T14:56:04.000Z,16.7
2022-09-10T14:57:15.000Z,18.3
2022-09-10T14:58:27.000Z,17.4
2022-09-10T14:59:40.000Z,18.3
2022-09-10T15:00:52.000Z,19
2022-09-10T15:02:04.000Z,18.6
2022-09-10T15:03:16.000Z,18.6
2022-09-10T15:04:28.000Z,17
2022-09-10T15:05:40.000Z,18.6
2022-09-10T15:06:53.000Z,19
2022-09-10T15:08:05.000Z,20.6
2022-09-10T15:09:17.000Z,20.6
2022-09-10T15:10:29.000Z,19
2022-09-10T15:11:41.000Z,19
2022-09-10T15:12:53.000Z,16.7
2022-09-10T15:14:05.000Z,19
2022-09-10T15:15:17.000Z,17
2022-09-10T15:16:29.000Z,18.3
2022-09-10T15:17:41.000Z,18.6
2022-09-10T15:18:54.000Z,18.3
2022-09-10T15:20:06.000Z,19.6
2022-09-10T15:21:18.000Z,18.6
2022-09-10T15:22:30.000Z,20.3
2022-09-10T15:23:42.000Z,18.6
2022-09-10T15:24:54.000Z,18
2022-09-10T15:26:07.000Z,18.6
2022-09-10T15:27:19.000Z,20.6
2022-09-10T15:28:30.000Z,18.6
2022-09-10T15:29:42.000Z,18.6
2022-09-10T15:30:54.000Z,18.6
2022-09-10T15:32:07.000Z,18.6
2022-09-10T15:33:19.000Z,17.4
2022-09-10T15:34:31.000Z,18.6
2022-09-10T15:35:43.000Z,18.3
2022-09-10T15:36:55.000Z,18.3
2022-09-10T15:38:07.000Z,18.3
2022-09-10T15:39:20.000Z,18
2022-09-10T15:40:32.000Z,18.3
2022-09-10T15:41:44.000Z,18
2022-09-10T15:42:56.000Z,16.4
2022-09-10T15:44:07.000Z,18
2022-09-10T15:45:20.000Z,17
2022-09-10T15:46:32.000Z,18.3
2022-09-10T15:47:44.000Z,18
2022-09-10T15:48:56.000Z,18
2022-09-10T15:50:08.000Z,18
2022-09-10T15:51:20.000Z,16.1
2022-09-10T15:52:32.000Z,18.6
2022-09-10T15:53:44.000Z,18
2022-09-10T15:54:56.000Z,18
2022-09-10T15:56:08.000Z,19
2022-09-10T15:57:20.000Z,16.1
2022-09-10T15:58:33.000Z,18
2022-09-10T15:59:45.000Z,18
2022-09-10T16:00:57.000Z,18
2022-09-10T16:02:09.000Z,17.4
2022-09-10T16:03:21.000Z,17.7
2022-09-10T16:04:34.000Z,17.4
2022-09-10T16:05:46.000Z,18
2022-09-10T16:06:57.000Z,17.7
2022-09-10T16:08:09.000Z,17.7